Time;durP1;ratioP1;P1;durP2;ratioP2;P2;SDS_P1;SDS_P2;PMS_P1;PMS_P2;Temp;Humidity;BMP_temperature;BMP_pressure;BME280_temperature;BME280_humidity;BME280_pressure;Samples;Min_cycle;Max_cycle;Signal;HPM_P1;HPM_P2
2021/03/05 00:01:41;;;;;;;20.80;8.83;;;;;;;0.91;100.00;100989.78;5016359;28;20216;-73
2021/03/05 00:04:07;;;;;;;23.03;9.77;;;;;;;0.91;100.00;100994.91;5022578;28;20248;-73
2021/03/05 00:06:33;;;;;;;21.77;9.23;;;;;;;0.90;100.00;100994.91;5009513;28;20207;-73
2021/03/05 00:08:58;;;;;;;20.23;9.83;;;;;;;0.87;100.00;100993.13;5008147;28;20766;-73
2021/03/05 00:11:24;;;;;;;24.20;9.97;;;;;;;0.85;100.00;100999.94;5015033;28;20274;-73
2021/03/05 00:13:50;;;;;;;24.03;9.80;;;;;;;0.87;100.00;100995.69;5010665;28;20223;-73
2021/03/05 00:16:16;;;;;;;22.33;10.43;;;;;;;0.88;100.00;100994.00;5008135;28;20725;-73
2021/03/05 00:18:43;;;;;;;22.40;9.50;;;;;;;0.91;100.00;100999.19;5006641;28;20191;-73
2021/03/05 00:21:09;;;;;;;21.73;10.13;;;;;;;0.87;100.00;101005.13;5010335;28;20230;-73
2021/03/05 00:23:35;;;;;;;23.70;9.40;;;;;;;0.82;100.00;101002.44;5002242;28;20281;-73
2021/03/05 00:26:01;;;;;;;19.30;8.67;;;;;;;0.85;100.00;101005.06;5006247;28;20362;-73
2021/03/05 00:28:27;;;;;;;20.90;9.13;;;;;;;0.85;100.00;101009.34;5005399;28;20221;-73
2021/03/05 00:30:54;;;;;;;18.80;8.93;;;;;;;0.85;100.00;101017.91;5016259;28;20245;-73
2021/03/05 00:33:19;;;;;;;18.67;8.87;;;;;;;0.83;100.00;101017.03;5021499;28;20216;-73
2021/03/05 00:35:46;;;;;;;20.70;9.03;;;;;;;0.81;100.00;101018.69;5011205;28;20216;-73
2021/03/05 00:38:12;;;;;;;20.13;8.70;;;;;;;0.82;100.00;101025.53;5010706;28;20254;-73
2021/03/05 00:40:38;;;;;;;17.90;8.37;;;;;;;0.81;100.00;101023.84;5013662;28;20231;-73
2021/03/05 00:43:05;;;;;;;16.20;8.23;;;;;;;0.78;100.00;101021.19;5019389;28;20754;-73
2021/03/05 00:45:31;;;;;;;13.47;7.33;;;;;;;0.78;100.00;101026.34;5009624;28;20207;-73
2021/03/05 00:47:57;;;;;;;17.63;8.20;;;;;;;0.78;100.00;101025.47;5006416;28;20205;-73
2021/03/05 00:50:23;;;;;;;12.60;7.47;;;;;;;0.76;100.00;101028.00;5008162;28;20277;-73
2021/03/05 00:52:51;;;;;;;17.10;8.30;;;;;;;0.74;100.00;101025.41;5014889;28;20559;-73
2021/03/05 00:55:20;;;;;;;15.33;8.00;;;;;;;0.73;100.00;101022.81;4991431;28;20201;-73
2021/03/05 00:57:50;;;;;;;15.27;7.33;;;;;;;0.71;100.00;101017.63;4991258;28;20840;-73
2021/03/05 01:00:17;;;;;;;17.93;8.20;;;;;;;0.72;100.00;101021.94;5005832;28;20240;-73
2021/03/05 01:02:45;;;;;;;16.73;7.83;;;;;;;0.70;100.00;101027.88;5006657;28;20293;-73
2021/03/05 01:05:11;;;;;;;15.57;7.53;;;;;;;0.73;100.00;101026.22;5020231;28;20276;-73
2021/03/05 01:07:38;;;;;;;15.90;7.47;;;;;;;0.67;100.00;101025.22;5006197;28;20284;-73
2021/03/05 01:10:07;;;;;;;13.67;7.17;;;;;;;0.66;100.00;101024.38;5005146;28;20271;-73
2021/03/05 01:12:33;;;;;;;15.43;7.90;;;;;;;0.67;100.00;101020.97;5012492;28;20226;-73
2021/03/05 01:15:00;;;;;;;16.03;7.77;;;;;;;0.65;100.00;101021.78;5018954;28;20287;-73
2021/03/05 01:17:26;;;;;;;13.43;7.10;;;;;;;0.67;100.00;101026.13;5025343;28;20224;-73
2021/03/05 01:19:52;;;;;;;14.07;7.13;;;;;;;0.65;100.00;101022.66;5022412;28;20195;-73
2021/03/05 01:22:18;;;;;;;16.23;8.07;;;;;;;0.65;100.00;101024.34;5019756;28;20234;-73
2021/03/05 01:24:44;;;;;;;15.10;7.50;;;;;;;0.65;100.00;101022.66;5011057;28;20190;-73
2021/03/05 01:27:10;;;;;;;13.50;7.50;;;;;;;0.62;100.00;101024.28;4995213;28;20594;-73
2021/03/05 01:29:36;;;;;;;15.13;7.70;;;;;;;0.66;100.00;101023.50;5010200;28;20218;-73
2021/03/05 01:32:03;;;;;;;17.13;8.90;;;;;;;0.65;100.00;101022.66;5011482;28;20227;-73
2021/03/05 01:34:29;;;;;;;17.00;8.27;;;;;;;0.65;100.00;101024.34;5018864;28;20192;-73
2021/03/05 01:36:55;;;;;;;19.20;9.33;;;;;;;0.64;100.00;101023.47;5009841;28;20205;-73
2021/03/05 01:39:21;;;;;;;15.90;8.43;;;;;;;0.64;100.00;101023.47;5013322;28;20661;-73
2021/03/05 01:41:47;;;;;;;17.83;8.57;;;;;;;0.66;100.00;101024.38;5028537;28;20224;-73
2021/03/05 01:44:15;;;;;;;16.27;8.60;;;;;;;0.67;100.00;101023.56;5013637;28;20269;-73
2021/03/05 01:46:41;;;;;;;16.83;8.53;;;;;;;0.66;100.00;101026.06;5017819;28;20254;-73
2021/03/05 01:49:08;;;;;;;16.30;8.57;;;;;;;0.69;100.00;101026.16;5010636;28;20299;-73
2021/03/05 01:51:36;;;;;;;16.00;7.87;;;;;;;0.70;100.00;101030.44;5010944;28;20231;-73
2021/03/05 01:54:02;;;;;;;15.67;8.60;;;;;;;0.68;100.00;101029.53;5018680;28;20272;-73
2021/03/05 01:56:35;;;;;;;15.10;8.67;;;;;;;0.67;100.00;101036.38;5025554;28;20552;-73
2021/03/05 01:59:01;;;;;;;17.00;7.93;;;;;;;0.66;100.00;101033.78;4994261;28;20676;-73
2021/03/05 02:01:29;;;;;;;16.70;8.03;;;;;;;0.63;100.00;101034.56;5009835;28;20228;-73
2021/03/05 02:03:56;;;;;;;16.53;8.30;;;;;;;0.63;100.00;101038.84;5021083;28;20250;-73
2021/03/05 02:06:22;;;;;;;15.27;6.50;;;;;;;0.64;100.00;101035.44;5015273;28;20283;-73
2021/03/05 02:08:48;;;;;;;10.80;5.80;;;;;;;0.58;100.00;101041.28;5010764;28;20269;-73
2021/03/05 02:11:16;;;;;;;11.10;5.53;;;;;;;0.54;100.00;101042.94;5025041;28;20222;-73
2021/03/05 02:13:43;;;;;;;8.90;5.33;;;;;;;0.49;100.00;101052.25;5012699;28;20243;-73
2021/03/05 02:16:18;;;;;;;10.77;5.37;;;;;;;0.45;100.00;101052.16;5016025;28;20205;-73
2021/03/05 02:18:53;;;;;;;9.60;5.23;;;;;;;0.43;100.00;101059.81;5009836;28;20194;-73
2021/03/05 02:21:34;;;;;;;7.53;4.20;;;;;;;0.36;100.00;101069.06;5026373;28;20213;-73
2021/03/05 02:24:20;;;;;;;7.20;3.73;;;;;;;0.30;100.00;101068.03;5009913;28;20205;-73
2021/03/05 02:27:01;;;;;;;4.50;3.27;;;;;;;0.23;100.00;101068.72;5016934;28;20200;-73
2021/03/05 02:30:02;;;;;;;4.23;2.63;;;;;;;0.19;100.00;101072.94;5007740;28;20211;-73
2021/03/05 02:32:38;;;;;;;4.10;2.97;;;;;;;0.13;100.00;101073.66;5006625;28;20291;-73
2021/03/05 02:35:07;;;;;;;6.27;3.27;;;;;;;0.14;100.00;101075.41;5007336;28;20196;-73
2021/03/05 02:37:37;;;;;;;4.17;2.50;;;;;;;0.10;100.00;101076.13;5017564;28;20691;-73
2021/03/05 02:40:08;;;;;;;5.40;3.13;;;;;;;0.05;100.00;101087.13;5010585;28;20219;-73
2021/03/05 02:42:41;;;;;;;5.10;3.30;;;;;;;0.03;100.00;101089.66;5013742;28;20217;-73
2021/03/05 02:45:10;;;;;;;6.33;3.70;;;;;;;0.01;100.00;101087.91;5006252;28;20193;-73
2021/03/05 02:47:41;;;;;;;8.40;4.27;;;;;;;-0.02;100.00;101091.22;5008507;28;20196;-73
2021/03/05 02:50:08;;;;;;;6.90;4.40;;;;;;;-0.03;100.00;101090.38;5020507;28;20683;-73
2021/03/05 02:52:37;;;;;;;7.30;4.60;;;;;;;-0.03;100.00;101094.63;5011799;28;20202;-73
2021/03/05 02:55:05;;;;;;;8.70;4.67;;;;;;;-0.02;100.00;101101.47;4996828;28;20608;-73
2021/03/05 02:57:34;;;;;;;9.90;4.93;;;;;;;-0.05;100.00;101112.53;5010290;28;20198;-73
2021/03/05 03:00:04;;;;;;;10.20;5.00;;;;;;;-0.04;100.00;101110.84;5004556;28;20288;-73
2021/03/05 03:02:32;;;;;;;9.17;5.10;;;;;;;-0.06;100.00;101120.19;5012050;28;20202;-73
2021/03/05 03:05:00;;;;;;;8.13;5.53;;;;;;;-0.07;100.00;101124.47;5009967;28;20219;-73
2021/03/05 03:07:27;;;;;;;8.73;5.40;;;;;;;-0.09;100.00;101125.25;5021530;28;20557;-73
2021/03/05 03:09:53;;;;;;;8.87;5.33;;;;;;;-0.08;100.00;101139.81;5012836;28;20715;-73
2021/03/05 03:12:21;;;;;;;8.70;5.07;;;;;;;-0.08;100.00;101132.09;5013335;28;20216;-73
2021/03/05 03:14:49;;;;;;;7.70;4.80;;;;;;;-0.10;100.00;101141.47;5009884;28;20233;-73
2021/03/05 03:17:16;;;;;;;7.63;4.43;;;;;;;-0.10;99.78;101149.16;5012108;28;20212;-73
2021/03/05 03:19:46;;;;;;;9.23;5.27;;;;;;;-0.12;99.99;101143.09;5023608;28;20200;-73
2021/03/05 03:22:13;;;;;;;8.43;4.90;;;;;;;-0.11;100.00;101152.53;5015207;28;20760;-73
2021/03/05 03:24:39;;;;;;;7.80;4.80;;;;;;;-0.10;100.00;101151.72;5011916;28;20197;-73
2021/03/05 03:27:05;;;;;;;7.40;4.90;;;;;;;-0.11;100.00;101155.09;5019813;28;20933;-73
2021/03/05 03:29:31;;;;;;;8.33;4.73;;;;;;;-0.13;100.00;101165.31;5018314;28;20221;-73
2021/03/05 03:31:57;;;;;;;8.23;4.50;;;;;;;-0.14;100.00;101161.03;5022081;28;20360;-73
2021/03/05 03:34:23;;;;;;;9.07;4.70;;;;;;;-0.15;100.00;101164.41;5019811;28;20196;-73
2021/03/05 03:36:53;;;;;;;7.47;4.27;;;;;;;-0.16;100.00;101172.06;5010799;28;20184;-73
2021/03/05 03:39:22;;;;;;;7.30;4.27;;;;;;;-0.18;100.00;101171.16;5015412;28;20204;-73
2021/03/05 03:41:49;;;;;;;8.30;4.37;;;;;;;-0.21;100.00;101177.06;5009405;28;20208;-73
2021/03/05 03:44:15;;;;;;;8.97;5.20;;;;;;;-0.21;100.00;101180.50;5009368;28;20201;-73
2021/03/05 03:46:48;;;;;;;7.73;4.37;;;;;;;-0.23;100.00;101189.84;5013180;28;20248;-73
2021/03/05 03:49:19;;;;;;;6.47;4.20;;;;;;;-0.27;100.00;101188.00;5016687;28;20231;-73
2021/03/05 03:51:52;;;;;;;7.27;4.23;;;;;;;-0.28;100.00;101193.97;5009698;28;20220;-73
2021/03/05 03:54:21;;;;;;;9.20;4.53;;;;;;;-0.32;100.00;101188.72;5009019;28;20291;-73
2021/03/05 03:56:50;;;;;;;7.17;4.20;;;;;;;-0.34;99.85;101200.63;5016318;28;20212;-73
2021/03/05 03:59:17;;;;;;;6.83;4.07;;;;;;;-0.33;99.81;101203.22;5012350;28;20226;-73
2021/03/05 04:01:45;;;;;;;7.37;4.03;;;;;;;-0.34;99.66;101209.16;5013026;28;20223;-73
2021/03/05 04:04:11;;;;;;;6.87;4.07;;;;;;;-0.34;99.80;101226.25;5015499;28;20223;-73
2021/03/05 04:06:39;;;;;;;6.40;3.93;;;;;;;-0.38;99.73;101221.03;5017327;28;20211;-73
2021/03/05 04:09:08;;;;;;;5.80;3.73;;;;;;;-0.39;99.64;101226.09;5013760;28;20655;-73
2021/03/05 04:11:36;;;;;;;6.17;3.50;;;;;;;-0.45;99.15;101226.81;5015676;28;20217;-73
2021/03/05 04:14:03;;;;;;;4.73;3.30;;;;;;;-0.45;98.76;101237.06;5020072;28;20397;-73
2021/03/05 04:16:29;;;;;;;5.03;3.30;;;;;;;-0.45;99.13;101241.31;5015560;28;20196;-73
2021/03/05 04:18:55;;;;;;;4.67;3.40;;;;;;;-0.48;98.47;101242.09;5015249;28;20202;-73
2021/03/05 04:21:25;;;;;;;6.27;3.40;;;;;;;-0.46;98.76;101252.38;5011745;28;20228;-73
2021/03/05 04:23:51;;;;;;;7.77;3.70;;;;;;;-0.46;99.03;101253.28;5015428;28;20684;-73
2021/03/05 04:26:17;;;;;;;9.13;4.00;;;;;;;-0.45;99.05;101254.13;5017456;28;20215;-73
2021/03/05 04:28:44;;;;;;;6.20;3.33;;;;;;;-0.47;98.99;101253.22;5010171;28;20208;-73
2021/03/05 04:31:10;;;;;;;7.67;3.70;;;;;;;-0.50;98.84;101259.09;5015801;28;20232;-73
2021/03/05 04:33:36;;;;;;;10.83;5.00;;;;;;;-0.53;98.72;101258.16;5015481;28;20191;-73
2021/03/05 04:36:03;;;;;;;7.43;3.97;;;;;;;-0.54;98.70;101262.41;5013960;28;20199;-73
2021/03/05 04:38:29;;;;;;;6.07;3.50;;;;;;;-0.59;98.32;101269.94;5015156;28;20203;-73
2021/03/05 04:40:55;;;;;;;8.60;3.40;;;;;;;-0.63;97.68;101268.13;5014035;28;20217;-73
2021/03/05 04:43:21;;;;;;;6.00;3.50;;;;;;;-0.61;98.12;101270.75;5017480;28;20207;-73
2021/03/05 04:45:48;;;;;;;5.33;3.43;;;;;;;-0.67;98.05;101270.53;5019117;28;20208;-73
2021/03/05 04:48:14;;;;;;;6.73;3.27;;;;;;;-0.71;98.43;101278.97;5026050;28;20199;-73
2021/03/05 04:50:40;;;;;;;7.07;3.77;;;;;;;-0.81;98.59;101282.94;5021122;28;20590;-73
2021/03/05 04:53:06;;;;;;;4.77;3.20;;;;;;;-0.94;98.00;101285.94;5018849;28;20287;-73
2021/03/05 04:55:33;;;;;;;6.57;3.20;;;;;;;-1.03;98.00;101292.50;5000494;28;20251;-73
2021/03/05 04:57:59;;;;;;;6.93;3.30;;;;;;;-1.06;98.22;101292.41;5019935;28;20284;-73
2021/03/05 05:00:26;;;;;;;9.03;3.80;;;;;;;-1.11;98.44;101304.19;5012556;28;20232;-73
2021/03/05 05:02:52;;;;;;;7.00;3.37;;;;;;;-1.21;98.84;101303.03;5015373;28;20192;-73
2021/03/05 05:05:19;;;;;;;4.27;2.90;;;;;;;-1.27;99.10;101299.38;5008488;28;20192;-73
2021/03/05 05:07:45;;;;;;;5.67;3.27;;;;;;;-1.36;98.99;101307.63;5009949;28;20252;-73
2021/03/05 05:10:11;;;;;;;5.67;3.13;;;;;;;-1.42;99.24;101312.56;5018826;28;20232;-73
2021/03/05 05:12:38;;;;;;;5.33;2.87;;;;;;;-1.50;99.53;101316.53;5018180;28;20204;-73
2021/03/05 05:15:05;;;;;;;5.73;3.63;;;;;;;-1.59;99.77;101327.31;5012632;28;20283;-73
2021/03/05 05:17:31;;;;;;;4.23;2.97;;;;;;;-1.68;100.00;101324.44;5019296;28;20200;-73
2021/03/05 05:19:58;;;;;;;5.20;3.33;;;;;;;-1.74;100.00;101333.63;5018676;28;20225;-73
2021/03/05 05:22:24;;;;;;;8.57;3.70;;;;;;;-1.81;100.00;101339.34;5022322;28;20200;-73
2021/03/05 05:24:50;;;;;;;3.93;2.83;;;;;;;-1.86;100.00;101340.88;5011697;28;20283;-73
2021/03/05 05:27:16;;;;;;;5.27;3.00;;;;;;;-1.92;100.00;101344.09;5021890;28;20238;-73
2021/03/05 05:29:42;;;;;;;3.87;2.63;;;;;;;-1.97;100.00;101339.59;5011225;28;20240;-73
2021/03/05 05:32:08;;;;;;;5.83;3.53;;;;;;;-2.00;100.00;101348.03;4998907;28;20856;-73
2021/03/05 05:34:34;;;;;;;4.57;3.07;;;;;;;-2.02;100.00;101354.78;5012076;28;20197;-73
2021/03/05 05:37:01;;;;;;;5.40;2.97;;;;;;;-2.07;100.00;101363.09;5012027;28;20292;-73
2021/03/05 05:39:27;;;;;;;5.97;3.20;;;;;;;-2.11;100.00;101368.09;5009722;28;20211;-73
2021/03/05 05:41:55;;;;;;;4.30;3.40;;;;;;;-2.19;100.00;101364.38;5016330;28;20207;-73
2021/03/05 05:44:21;;;;;;;4.77;2.97;;;;;;;-2.24;100.00;101373.53;5016383;28;20227;-73
2021/03/05 05:46:49;;;;;;;4.63;3.17;;;;;;;-2.29;100.00;101378.50;5009275;28;20210;-73
2021/03/05 05:49:16;;;;;;;4.93;2.90;;;;;;;-2.35;100.00;101374.81;5012199;28;20647;-73
2021/03/05 05:51:42;;;;;;;5.40;3.27;;;;;;;-2.39;100.00;101378.94;5016579;28;20590;-73
2021/03/05 05:54:10;;;;;;;6.97;3.80;;;;;;;-2.43;100.00;101378.75;5023638;28;20223;-73
2021/03/05 05:56:40;;;;;;;5.37;3.63;;;;;;;-2.47;100.00;101387.97;5017415;28;20230;-73
2021/03/05 05:59:06;;;;;;;7.30;3.97;;;;;;;-2.51;100.00;101392.09;5010644;28;20495;-73
2021/03/05 06:01:33;;;;;;;6.03;3.10;;;;;;;-2.58;100.00;101390.13;5012974;28;20836;-72
2021/03/05 06:04:00;;;;;;;5.70;3.50;;;;;;;-2.61;100.00;101402.75;5011376;28;20529;-73
2021/03/05 06:06:28;;;;;;;6.10;3.57;;;;;;;-2.67;100.00;101402.53;5011718;28;20458;-73
2021/03/05 06:08:56;;;;;;;6.63;3.40;;;;;;;-2.70;100.00;101407.50;5011613;28;20521;-73
2021/03/05 06:11:24;;;;;;;6.20;3.53;;;;;;;-2.73;100.00;101415.03;5017958;28;21088;-73
2021/03/05 06:13:51;;;;;;;4.73;3.47;;;;;;;-2.76;100.00;101417.44;5009532;28;21023;-73
2021/03/05 06:16:18;;;;;;;8.70;4.13;;;;;;;-2.80;100.00;101413.91;5007467;28;20524;-73
2021/03/05 06:18:46;;;;;;;5.30;3.43;;;;;;;-2.80;100.00;101423.25;5006354;28;20496;-73
2021/03/05 06:21:12;;;;;;;5.63;3.30;;;;;;;-2.81;100.00;101429.16;5004142;28;20496;-73
2021/03/05 06:23:57;;;;;;;4.67;3.03;;;;;;;-2.82;100.00;101433.38;5006250;28;20466;-73
2021/03/05 06:26:24;;;;;;;4.80;3.47;;;;;;;-2.84;100.00;101436.69;5015243;28;20491;-73
2021/03/05 06:29:02;;;;;;;5.50;3.40;;;;;;;-2.88;100.00;101441.66;5004510;28;20478;-73
2021/03/05 06:31:28;;;;;;;5.07;3.60;;;;;;;-2.85;100.00;101456.22;5011536;28;20497;-73
2021/03/05 06:33:57;;;;;;;6.03;3.50;;;;;;;-2.86;100.00;101457.91;5015389;28;20440;-73
2021/03/05 06:36:23;;;;;;;5.40;3.50;;;;;;;-2.83;100.00;101459.75;5011107;28;20476;-73
2021/03/05 06:38:49;;;;;;;7.43;4.03;;;;;;;-2.84;100.00;101464.78;5010383;28;20453;-73
2021/03/05 06:41:20;;;;;;;7.87;4.10;;;;;;;-2.81;100.00;101472.53;5018047;28;20504;-72
2021/03/05 06:43:49;;;;;;;7.23;3.43;;;;;;;-2.80;100.00;101479.41;5004499;28;20446;-73
2021/03/05 06:46:35;;;;;;;5.23;3.50;;;;;;;-2.79;100.00;101493.94;5010701;28;20455;-73
2021/03/05 06:49:03;;;;;;;5.90;3.20;;;;;;;-2.78;100.00;101491.44;5010223;28;21001;-73
2021/03/05 06:51:29;;;;;;;6.93;3.43;;;;;;;-2.76;100.00;101499.13;4986762;28;20530;-73
2021/03/05 06:54:09;;;;;;;4.30;2.93;;;;;;;-2.75;100.00;101503.44;5016997;28;20481;-73
2021/03/05 06:56:37;;;;;;;5.00;3.33;;;;;;;-2.71;100.00;101513.88;5000059;28;20622;-73
2021/03/05 06:59:06;;;;;;;7.03;3.40;;;;;;;-2.68;100.00;101513.09;5023388;28;20452;-73
2021/03/05 07:01:33;;;;;;;6.40;3.47;;;;;;;-2.63;100.00;101516.72;5006682;28;20474;-73
2021/03/05 07:04:09;;;;;;;5.40;3.37;;;;;;;-2.55;100.00;101530.69;5010872;28;20454;-73
2021/03/05 07:06:35;;;;;;;5.33;3.17;;;;;;;-2.50;100.00;101536.88;5016862;28;20793;-73
2021/03/05 07:09:03;;;;;;;4.57;3.03;;;;;;;-2.48;100.00;101529.25;5015934;28;20476;-73
2021/03/05 07:11:39;;;;;;;6.87;2.80;;;;;;;-2.44;100.00;101540.50;5020760;28;20977;-73
2021/03/05 07:14:08;;;;;;;5.23;2.90;;;;;;;-2.42;100.00;101539.72;5014843;28;20448;-73
2021/03/05 07:16:39;;;;;;;4.33;3.00;;;;;;;-2.36;100.00;101539.97;5016007;28;20491;-73
2021/03/05 07:19:05;;;;;;;9.13;3.13;;;;;;;-2.32;100.00;101549.53;5010986;28;20459;-73
2021/03/05 07:21:36;;;;;;;6.73;3.97;;;;;;;-2.29;99.08;101556.44;5020046;28;20469;-73
2021/03/05 07:24:05;;;;;;;6.37;2.87;;;;;;;-2.21;98.93;101555.06;5026304;28;20488;-73
2021/03/05 07:26:34;;;;;;;6.63;3.30;;;;;;;-2.16;98.52;101557.81;5018141;28;20467;-73
2021/03/05 07:29:01;;;;;;;4.40;2.77;;;;;;;-2.12;96.65;101575.88;5016421;28;20474;-73
2021/03/05 07:31:30;;;;;;;5.43;3.37;;;;;;;-2.05;96.05;101578.69;5015181;28;20235;-73
2021/03/05 07:34:00;;;;;;;7.87;3.20;;;;;;;-1.99;95.19;101572.13;5014305;28;20484;-73
2021/03/05 07:36:30;;;;;;;5.83;2.53;;;;;;;-1.93;94.69;101569.84;5007822;28;20497;-73
2021/03/05 07:39:03;;;;;;;3.53;2.60;;;;;;;-1.84;93.70;101574.44;5013984;28;20200;-73
2021/03/05 07:41:30;;;;;;;6.33;3.00;;;;;;;-1.79;92.44;101588.28;5005258;28;20459;-73
2021/03/05 07:43:57;;;;;;;5.53;2.60;;;;;;;-1.70;92.88;101585.22;5007319;28;20214;-73
2021/03/05 07:46:23;;;;;;;4.13;2.60;;;;;;;-1.68;90.90;101595.50;5007989;28;20258;-73
2021/03/05 07:48:51;;;;;;;4.67;2.30;;;;;;;-1.64;91.23;101585.44;5008553;28;20224;-73
2021/03/05 07:51:18;;;;;;;4.70;2.73;;;;;;;-1.60;90.83;101599.22;5008287;28;20216;-73
2021/03/05 07:53:55;;;;;;;4.67;2.53;;;;;;;-1.49;90.95;101599.66;5012435;28;20208;-73
2021/03/05 07:56:42;;;;;;;5.07;2.57;;;;;;;-1.41;90.24;101595.69;5012333;28;20439;-73
2021/03/05 07:59:09;;;;;;;3.60;2.00;;;;;;;-1.34;88.96;101608.78;5002863;28;20211;-73
2021/03/05 08:01:56;;;;;;;4.30;2.00;;;;;;;-1.24;89.42;101609.13;5005422;28;20278;-73
2021/03/05 08:04:23;;;;;;;2.30;1.80;;;;;;;-1.13;89.27;101620.63;5004326;28;20573;-73
2021/03/05 08:07:08;;;;;;;5.67;2.00;;;;;;;-1.12;87.17;101619.84;5015561;28;20199;-73
2021/03/05 08:09:36;;;;;;;3.77;1.93;;;;;;;-1.11;85.14;101629.25;5015513;28;20545;-73
2021/03/05 08:12:36;;;;;;;2.77;1.67;;;;;;;-1.03;84.90;101625.28;5011145;28;20250;-73
2021/03/05 08:15:22;;;;;;;3.53;1.53;;;;;;;-0.94;85.24;101623.91;4991200;28;20204;-73
2021/03/05 08:17:49;;;;;;;2.07;1.43;;;;;;;-0.87;84.21;101626.72;5008139;28;20200;-73
2021/03/05 08:20:48;;;;;;;2.30;1.47;;;;;;;-0.83;83.76;101623.44;5009724;28;20627;-73
2021/03/05 08:23:16;;;;;;;4.93;1.40;;;;;;;-0.66;85.16;101620.66;5010752;28;20607;-73
2021/03/05 08:25:50;;;;;;;3.30;1.23;;;;;;;-0.56;82.60;101632.97;5015333;28;20602;-73
2021/03/05 08:28:40;;;;;;;2.13;1.30;;;;;;;-0.39;83.97;101630.97;5020342;28;20563;-73
2021/03/05 08:31:37;;;;;;;1.90;1.30;;;;;;;-0.37;81.51;101631.91;5000301;28;20237;-73
2021/03/05 08:34:22;;;;;;;1.10;1.00;;;;;;;-0.35;78.70;101637.06;5007648;28;20208;-73
2021/03/05 08:36:49;;;;;;;2.87;1.47;;;;;;;-0.31;79.56;101638.94;5018324;28;20552;-73
2021/03/05 08:39:27;;;;;;;2.13;1.13;;;;;;;-0.15;82.37;101630.09;5014153;28;20195;-73
2021/03/05 08:42:28;;;;;;;3.57;1.20;;;;;;;-0.18;78.17;101635.97;5008686;28;20220;-73
2021/03/05 08:45:08;;;;;;;2.87;1.40;;;;;;;-0.03;77.57;101651.00;5011011;28;20571;-73
2021/03/05 08:47:34;;;;;;;4.93;1.50;;;;;;;-0.03;75.56;101661.28;5007805;28;20209;-73
2021/03/05 08:50:01;;;;;;;1.60;1.10;;;;;;;0.08;77.89;101652.22;4998078;28;20220;-73
2021/03/05 08:52:28;;;;;;;1.57;0.87;;;;;;;0.09;75.98;101656.56;5012642;28;20608;-73
2021/03/05 08:54:54;;;;;;;3.37;1.20;;;;;;;0.17;77.22;101649.09;5017771;28;20192;-73
2021/03/05 08:57:20;;;;;;;3.13;1.17;;;;;;;0.22;73.81;101662.09;5012460;28;20683;-73
2021/03/05 08:59:48;;;;;;;1.90;1.10;;;;;;;0.30;74.32;101664.09;5011107;28;20189;-73
2021/03/05 09:02:14;;;;;;;2.10;1.03;;;;;;;0.34;75.58;101665.91;5008206;28;20205;-73
2021/03/05 09:04:40;;;;;;;1.00;0.87;;;;;;;0.40;74.81;101665.22;5018659;28;20232;-73
2021/03/05 09:07:06;;;;;;;1.63;0.90;;;;;;;0.48;73.36;101668.06;5017994;28;20690;-73
2021/03/05 09:09:33;;;;;;;1.67;1.00;;;;;;;0.59;74.85;101674.41;5007444;28;20263;-73
2021/03/05 09:12:07;;;;;;;1.33;0.93;;;;;;;0.55;71.49;101681.13;5009395;28;20213;-73
2021/03/05 09:14:33;;;;;;;1.10;1.00;;;;;;;0.57;72.07;101676.03;5007060;28;20203;-73
2021/03/05 09:17:01;;;;;;;1.57;0.83;;;;;;;0.67;73.24;101669.50;5006461;28;20743;-73
2021/03/05 09:19:34;;;;;;;1.57;0.90;;;;;;;0.85;70.25;101675.22;5007433;28;20645;-73
2021/03/05 09:22:11;;;;;;;1.13;0.70;;;;;;;0.99;72.19;101677.34;5007388;28;20573;-73
2021/03/05 09:24:56;;;;;;;1.93;1.03;;;;;;;1.07;70.10;101687.00;5012298;28;20761;-73
2021/03/05 09:27:25;;;;;;;1.60;0.97;;;;;;;1.11;70.37;101685.41;5010727;28;20208;-73
2021/03/05 09:29:51;;;;;;;1.00;0.90;;;;;;;1.20;66.34;101701.06;5005197;28;20211;-73
2021/03/05 09:32:17;;;;;;;0.87;0.60;;;;;;;1.33;65.66;101708.31;5015641;28;20693;-74
2021/03/05 09:34:56;;;;;;;0.83;0.63;;;;;;;1.36;65.38;101693.81;5015728;28;20201;-73
2021/03/05 09:37:24;;;;;;;2.00;0.80;;;;;;;1.63;66.19;101696.28;4993244;28;20224;-73
2021/03/05 09:39:53;;;;;;;1.33;0.83;;;;;;;1.61;64.46;101706.53;5016305;28;20192;-73
2021/03/05 09:42:49;;;;;;;0.83;0.60;;;;;;;1.61;65.77;101709.09;5015910;28;20687;-73
2021/03/05 09:45:35;;;;;;;1.53;0.90;;;;;;;1.86;64.09;101710.63;5012680;28;20207;-73
2021/03/05 09:48:01;;;;;;;2.33;0.93;;;;;;;1.83;63.73;101723.44;5008657;28;20201;-73
2021/03/05 09:50:27;;;;;;;0.77;0.67;;;;;;;1.74;64.40;101719.72;5015139;28;20304;-73
2021/03/05 09:52:54;;;;;;;1.47;1.20;;;;;;;1.72;64.56;101726.53;5017819;28;20193;-73
2021/03/05 09:55:25;;;;;;;2.53;1.43;;;;;;;1.58;62.46;101732.13;5022283;28;20206;-73
2021/03/05 09:57:52;;;;;;;1.63;0.60;;;;;;;1.44;62.66;101739.47;5008614;28;20269;-73
2021/03/05 10:00:36;;;;;;;2.83;0.83;;;;;;;1.32;61.46;101745.13;5011694;28;20221;-73
2021/03/05 10:03:07;;;;;;;0.60;0.60;;;;;;;1.25;61.57;101738.06;5000243;28;20720;-73
2021/03/05 10:05:35;;;;;;;1.03;0.57;;;;;;;1.34;62.00;101745.16;5006943;28;20290;-73
2021/03/05 10:08:09;;;;;;;0.43;0.43;;;;;;;1.50;62.64;101755.06;5013347;28;20255;-73
2021/03/05 10:11:11;;;;;;;2.20;0.60;;;;;;;1.74;61.37;101755.72;5010488;28;20221;-73
2021/03/05 10:13:49;;;;;;;0.80;0.80;;;;;;;2.07;59.51;101756.63;5002779;28;20212;-73
2021/03/05 10:16:23;;;;;;;0.87;0.70;;;;;;;2.21;58.00;101763.88;5001216;28;20216;-73
2021/03/05 10:18:50;;;;;;;1.90;0.60;;;;;;;2.57;58.82;101753.66;5011138;28;20242;-73
2021/03/05 10:21:18;;;;;;;1.00;0.70;;;;;;;2.72;57.56;101760.84;5014586;28;20564;-73
2021/03/05 10:23:45;;;;;;;0.87;0.57;;;;;;;2.67;57.53;101754.72;5011717;28;20235;-73
2021/03/05 10:26:17;;;;;;;0.93;0.77;;;;;;;2.63;58.64;101764.09;5021606;28;20212;-73
2021/03/05 10:28:44;;;;;;;1.10;0.60;;;;;;;2.50;56.65;101771.47;5011598;28;20216;-73
2021/03/05 10:31:10;;;;;;;3.03;0.83;;;;;;;2.33;57.84;101777.06;5005859;28;20226;-73
2021/03/05 10:33:37;;;;;;;2.83;0.50;;;;;;;2.10;57.32;101783.31;5017258;28;20199;-73
2021/03/05 10:36:05;;;;;;;1.50;0.70;;;;;;;2.08;58.29;101778.97;5009890;28;20252;-73
2021/03/05 10:38:31;;;;;;;0.73;0.50;;;;;;;2.13;58.84;101784.25;5016421;28;20204;-73
2021/03/05 10:40:57;;;;;;;0.70;0.50;;;;;;;2.31;57.64;101778.72;5006343;28;20224;-73
2021/03/05 10:43:24;;;;;;;1.53;0.50;;;;;;;2.61;58.40;101785.50;5008923;28;20192;-73
2021/03/05 10:45:50;;;;;;;0.70;0.60;;;;;;;2.62;56.13;101790.69;5008921;28;20204;-73
2021/03/05 10:48:16;;;;;;;1.90;0.80;;;;;;;2.64;55.43;101806.19;5015919;28;20231;-73
2021/03/05 10:50:42;;;;;;;0.57;0.40;;;;;;;2.64;53.77;101811.31;5003691;28;20249;-73
2021/03/05 10:53:08;;;;;;;1.23;0.63;;;;;;;2.55;53.28;101801.66;5022177;28;20196;-73
2021/03/05 10:55:34;;;;;;;1.67;0.67;;;;;;;2.60;53.57;101810.38;5015499;28;20283;-73
2021/03/05 10:58:00;;;;;;;1.03;0.67;;;;;;;2.70;52.94;101806.31;5016899;28;20276;-73
2021/03/05 11:00:27;;;;;;;1.80;0.60;;;;;;;3.05;54.05;101806.31;5006272;28;20232;-73
2021/03/05 11:02:53;;;;;;;1.27;0.70;;;;;;;3.18;53.70;101810.03;5008394;28;20220;-73
2021/03/05 11:05:19;;;;;;;1.73;1.10;;;;;;;3.16;52.90;101814.28;5009542;28;20552;-73
2021/03/05 11:07:45;;;;;;;3.17;1.30;;;;;;;2.86;52.05;101815.28;5009688;28;20189;-73
2021/03/05 11:10:12;;;;;;;1.30;0.90;;;;;;;2.66;54.52;101819.97;5015632;28;20246;-73
2021/03/05 11:12:38;;;;;;;1.20;0.73;;;;;;;2.41;54.17;101827.03;5013452;28;20675;-73
2021/03/05 11:15:05;;;;;;;1.63;0.50;;;;;;;2.53;54.85;101811.03;5016535;28;20205;-73
2021/03/05 11:17:33;;;;;;;1.30;0.60;;;;;;;2.73;53.94;101808.97;5006855;28;20668;-73
2021/03/05 11:19:59;;;;;;;1.43;0.53;;;;;;;2.94;52.64;101813.78;5013084;28;20190;-73
2021/03/05 11:22:25;;;;;;;2.00;0.70;;;;;;;3.11;52.55;101821.91;5007822;28;20258;-73
2021/03/05 11:24:51;;;;;;;4.30;1.53;;;;;;;3.24;51.11;101833.38;5013744;28;20681;-74
2021/03/05 11:27:17;;;;;;;3.33;1.30;;;;;;;3.27;51.32;101814.53;5008235;28;20823;-73
2021/03/05 11:29:43;;;;;;;1.17;0.87;;;;;;;3.47;50.30;101828.75;5015918;28;20225;-73
2021/03/05 11:32:09;;;;;;;3.87;1.00;;;;;;;3.58;51.33;101831.56;5011838;28;20228;-73
2021/03/05 11:34:36;;;;;;;1.80;1.00;;;;;;;3.71;51.57;101828.44;5008624;28;20200;-73